• vieta
  • image
  • image
  • image
mod_vvisit_countermod_vvisit_countermod_vvisit_countermod_vvisit_countermod_vvisit_countermod_vvisit_counter
mod_vvisit_counterŠiandien1348
mod_vvisit_counterVakar1375
mod_vvisit_counterŠią savaitę5709
mod_vvisit_counterPraėjusią savaitę9342
mod_vvisit_counterŠį mėnesį34380
mod_vvisit_counterPraėjusį mėnesį25097
mod_vvisit_counterViso601333

Mes turime: 40 svečius, 2 bots online
Jūsų IP: 54.166.89.1
 , 
Šiandien: Kov 30, 2017
Oro uostas / Naujienos / 2015 Gegužė

2015 Gegužė

Š.m. gegužės 28 d. iš Uzbekistano į tarptautinį Šiaulių oro uostą atskrido orlaivis IL-76TD. Šiuo orlaiviu iš Lietuvos į Uzbekistaną buvo išgabenta Lietuvoje pagaminta oro uosto valdymui skirta įrangą. Krovinio ekspedijavimą atliko UAB „Rikusta“.

UAB „Rikusta“ teigimu, vykdytas projektas yra tęstinis, artimiausiu metu nusimato pakartotiniai skrydžiai į Šiaulius.


IL76 01IL76 02

Šiandien

Ketvirtadienis, 30 Kovas 2017

Orų prognozė

Šiauliai °C
   

Orų prognozė aviacijai

[source: ADDS]
METAR
EYSA 301820Z 16007KT 9999 SCT047 BKN130 03/M04 Q1023 R14L/0///95 R14R/0///95 BLU NOSIG =
TAF
TAF EYSA 301700Z 3018/3103 17010KT 7000 BKN025 BECMG 3019/3021 RA BECMG 3021/3023 SCT005 OVC010 TEMPO 3023/3103 3000 OVC005 =
SR / SS: 04:02 / 17:01 UTC (EYSA 2017-03-30)

Paieška

Lankytojai

Mes turime 42 svečius online

tic logo lt